Mariner Of The Seas — C6FV9 — position and weather

sailwx.info

Track history (hours):
 
Tides and Currents Weather Stations Pressure Air Temp Water Temp Dewpoint Dewpoint Depression Visibility Wind Speed Wind Dir Waves Ship Positions

Mariner Of The Seas

Operator: Royal Caribbean Cruises Ltd

Last reported at 2017-May-25 02:29 UTC. Time now 2017-May-25 02:58 UTC.
Position N 31°25' E 121°30'.

Type: Passenger vessel. MMSI: 311493000.

Date/timePositionNaut miles runAvg speedWind from/ knotsBaromVisibWave heightAir tempDewpointWater temp
2017-May-25 02:29N 31°25' E 121°30'0 0.0
2017-May-25 01:38N 31°25' E 121°30'0 0.0
2017-May-25 01:14N 31°25' E 121°30'0 0.0
2017-May-25 00:59N 31°25' E 121°30'0 0.0
2017-May-25 00:24N 31°25' E 121°30'0 0.0
2017-May-25 00:00N 31°25' E 121°30'1 1.7
2017-May-24 23:30N 31°25' E 121°31'510.4
2017-May-24 23:00N 31°23' E 121°37'612.0
2017-May-24 22:30N 31°20' E 121°43'612.2
2017-May-24 22:00N 31°17' E 121°49'611.4
2017-May-24 21:30N 31°16' E 121°56'510.6
2017-May-24 21:00N 31°15' E 122°02'510.5
2017-May-24 20:30N 31°13' E 122°08'5 9.9
2017-May-24 20:00N 31°10' E 122°12'510.3
2017-May-24 19:30N 31°07' E 122°17'  
2017-May-20 19:48N 31°23' E 123°43'612.4
2017-May-20 19:19N 31°21' E 123°36'2612.3
2017-May-20 17:12N 31°14' E 123°07'412.3
2017-May-20 16:51N 31°13' E 123°02'412.3
2017-May-20 16:30N 31°12' E 122°57'612.3
2017-May-20 16:00N 31°09' E 122°51'1812.3
2017-May-20 14:32N 31°05' E 122°31'5 8.7
2017-May-20 14:00N 31°05' E 122°25'713.2
2017-May-20 13:30N 31°06' E 122°18'713.1
2017-May-20 13:00N 31°10' E 122°11'611.1
2017-May-20 12:30N 31°13' E 122°06'713.0
2017-May-20 11:58N 31°15' E 121°58'511.6
2017-May-20 11:30N 31°16' E 121°52'713.4
2017-May-20 11:00N 31°19' E 121°45'5 9.8
2017-May-20 10:30N 31°21' E 121°40'5 9.1
2017-May-20 10:00N 31°23' E 121°35'4 8.0
2017-May-20 09:30N 31°25' E 121°31'1 1.1
2017-May-20 08:59N 31°25' E 121°30'0 0.0
2017-May-20 08:29N 31°25' E 121°30'0 0.0
2017-May-20 07:59N 31°25' E 121°30'0 0.0
2017-May-20 07:29N 31°25' E 121°30'0 0.0
2017-May-20 06:59N 31°25' E 121°30'0 0.0
2017-May-20 06:23N 31°25' E 121°30'0 0.0
2017-May-20 05:59N 31°25' E 121°30'0 0.0
2017-May-20 05:26N 31°25' E 121°30'0 0.0
2017-May-20 04:59N 31°25' E 121°30'0 0.0
2017-May-20 04:26N 31°25' E 121°30'0 0.0
2017-May-20 03:56N 31°25' E 121°30'0 0.0
2017-May-20 03:29N 31°25' E 121°30'0 0.0
2017-May-20 02:59N 31°25' E 121°30'0 0.0
2017-May-20 02:29N 31°25' E 121°30'0 0.0
2017-May-20 01:59N 31°25' E 121°30'0 0.0
2017-May-20 01:29N 31°25' E 121°30'0 0.0
2017-May-20 00:59N 31°25' E 121°30'0 0.0
2017-May-20 00:29N 31°25' E 121°30'0 0.0
2017-May-19 23:59N 31°25' E 121°30'0 0.0
2017-May-19 23:29N 31°25' E 121°30'0 0.0
2017-May-19 22:59N 31°25' E 121°30'0 0.0
2017-May-19 22:30N 31°25' E 121°30'3 5.4
2017-May-19 22:00N 31°24' E 121°33'612.0
2017-May-19 21:30N 31°21' E 121°39'611.1
2017-May-19 21:00N 31°19' E 121°45'510.7
2017-May-19 20:30N 31°16' E 121°51'510.8
2017-May-19 20:00N 31°15' E 121°57'611.3
2017-May-19 19:30N 31°14' E 122°04'5 9.8
2017-May-19 19:00N 31°12' E 122°09'510.2
2017-May-19 18:30N 31°09' E 122°14'5 9.6
2017-May-19 18:00N 31°06' E 122°18'712.7
2017-May-19 17:26N 31°07' E 122°27'4111.9
2017-May-19 13:58N 31°15' E 123°14'612.2
2017-May-19 13:30N 31°17' E 123°20'812.2
2017-May-19 12:49N 31°20' E 123°30'412.2
2017-May-19 12:30N 31°21' E 123°34'712.1
2017-May-19 11:57N 31°22' E 123°41'  
2017-May-16 00:45N 31°43' E 125°12'311.6
2017-May-16 00:30N 31°42' E 125°09'611.6
2017-May-16 00:00N 31°40' E 125°03'911.7
2017-May-15 23:13N 31°38' E 124°52'211.7
2017-May-15 23:00N 31°37' E 124°49'611.7
2017-May-15 22:30N 31°36' E 124°43'611.8
2017-May-15 22:00N 31°35' E 124°36'611.7
2017-May-15 21:30N 31°33' E 124°29'611.8
2017-May-15 21:00N 31°32' E 124°23'612.0
2017-May-15 20:30N 31°30' E 124°16'811.9
2017-May-15 19:51N 31°28' E 124°07'411.8
2017-May-15 19:30N 31°27' E 124°02'711.9
2017-May-15 18:56N 31°25' E 123°55'511.4
2017-May-15 18:30N 31°24' E 123°49'611.5
2017-May-15 18:00N 31°23' E 123°43'611.9
2017-May-15 17:30N 31°20' E 123°36'611.6
2017-May-15 17:00N 31°19' E 123°30'611.8
2017-May-15 16:30N 31°17' E 123°23'611.7
2017-May-15 16:00N 31°15' E 123°17'611.9
2017-May-15 15:31N 31°14' E 123°10'611.7
2017-May-15 15:00N 31°11' E 123°04'611.6
2017-May-15 14:30N 31°09' E 122°57'1111.3
2017-May-15 13:30N 31°05' E 122°45'611.6
2017-May-15 13:00N 31°05' E 122°38'611.6
2017-May-15 12:30N 31°05' E 122°31'5 9.9
2017-May-15 12:00N 31°06' E 122°26'713.3
2017-May-15 11:29N 31°06' E 122°18'714.4
2017-May-15 11:00N 31°10' E 122°11'714.7
2017-May-15 10:31N 31°14' E 122°04'815.3
2017-May-15 10:00N 31°16' E 121°55'815.1
2017-May-15 09:31N 31°18' E 121°46'713.0
2017-May-15 09:00N 31°21' E 121°40'611.8
2017-May-15 08:30N 31°24' E 121°34'3 6.1
2017-May-15 08:01N 31°25' E 121°30'0 0.0
2017-May-15 07:31N 31°25' E 121°30'0 0.0
2017-May-15 07:01N 31°25' E 121°30'0 0.0
2017-May-15 06:30N 31°25' E 121°30'0 0.0
2017-May-15 06:01N 31°25' E 121°30'0 0.0
2017-May-15 05:31N 31°25' E 121°30'0 0.0
2017-May-15 05:00N 31°25' E 121°30'0 0.0
2017-May-15 04:25N 31°25' E 121°30'0 0.0
2017-May-15 04:01N 31°25' E 121°30'0 0.0
2017-May-15 03:27N 31°25' E 121°30'0 0.0
2017-May-15 02:49N 31°25' E 121°30'  
Track history (hours):
 
Tides and Currents Weather Stations Pressure Air Temp Water Temp Dewpoint Dewpoint Depression Visibility Wind Speed Wind Dir Waves Ship Positions

Mariner Of The Seas

Operator: Royal Caribbean Cruises Ltd

Last reported at 2017-May-25 02:29 UTC. Time now 2017-May-25 02:58 UTC.
Position N 31°25' E 121°30'.

Type: Passenger vessel. MMSI: 311493000.

Date/timePositionNaut miles runAvg speedWind from/ knotsBaromVisibWave heightAir tempDewpointWater temp
2017-May-25 02:29N 31°25' E 121°30'0 0.0
2017-May-25 01:38N 31°25' E 121°30'0 0.0
2017-May-25 01:14N 31°25' E 121°30'0 0.0
2017-May-25 00:59N 31°25' E 121°30'0 0.0
2017-May-25 00:24N 31°25' E 121°30'0 0.0
2017-May-25 00:00N 31°25' E 121°30'1 1.7
2017-May-24 23:30N 31°25' E 121°31'510.4
2017-May-24 23:00N 31°23' E 121°37'612.0
2017-May-24 22:30N 31°20' E 121°43'612.2
2017-May-24 22:00N 31°17' E 121°49'611.4
2017-May-24 21:30N 31°16' E 121°56'510.6
2017-May-24 21:00N 31°15' E 122°02'510.5
2017-May-24 20:30N 31°13' E 122°08'5 9.9
2017-May-24 20:00N 31°10' E 122°12'510.3
2017-May-24 19:30N 31°07' E 122°17'  
2017-May-20 19:48N 31°23' E 123°43'612.4
2017-May-20 19:19N 31°21' E 123°36'2612.3
2017-May-20 17:12N 31°14' E 123°07'412.3
2017-May-20 16:51N 31°13' E 123°02'412.3
2017-May-20 16:30N 31°12' E 122°57'612.3
2017-May-20 16:00N 31°09' E 122°51'1812.3
2017-May-20 14:32N 31°05' E 122°31'5 8.7
2017-May-20 14:00N 31°05' E 122°25'713.2
2017-May-20 13:30N 31°06' E 122°18'713.1
2017-May-20 13:00N 31°10' E 122°11'611.1
2017-May-20 12:30N 31°13' E 122°06'713.0
2017-May-20 11:58N 31°15' E 121°58'511.6
2017-May-20 11:30N 31°16' E 121°52'713.4
2017-May-20 11:00N 31°19' E 121°45'5 9.8
2017-May-20 10:30N 31°21' E 121°40'5 9.1
2017-May-20 10:00N 31°23' E 121°35'4 8.0
2017-May-20 09:30N 31°25' E 121°31'1 1.1
2017-May-20 08:59N 31°25' E 121°30'0 0.0
2017-May-20 08:29N 31°25' E 121°30'0 0.0
2017-May-20 07:59N 31°25' E 121°30'0 0.0
2017-May-20 07:29N 31°25' E 121°30'0 0.0
2017-May-20 06:59N 31°25' E 121°30'0 0.0
2017-May-20 06:23N 31°25' E 121°30'0 0.0
2017-May-20 05:59N 31°25' E 121°30'0 0.0
2017-May-20 05:26N 31°25' E 121°30'0 0.0
2017-May-20 04:59N 31°25' E 121°30'0 0.0
2017-May-20 04:26N 31°25' E 121°30'0 0.0
2017-May-20 03:56N 31°25' E 121°30'0 0.0
2017-May-20 03:29N 31°25' E 121°30'0 0.0
2017-May-20 02:59N 31°25' E 121°30'0 0.0
2017-May-20 02:29N 31°25' E 121°30'0 0.0
2017-May-20 01:59N 31°25' E 121°30'0 0.0
2017-May-20 01:29N 31°25' E 121°30'0 0.0
2017-May-20 00:59N 31°25' E 121°30'0 0.0
2017-May-20 00:29N 31°25' E 121°30'0 0.0
2017-May-19 23:59N 31°25' E 121°30'0 0.0
2017-May-19 23:29N 31°25' E 121°30'0 0.0
2017-May-19 22:59N 31°25' E 121°30'0 0.0
2017-May-19 22:30N 31°25' E 121°30'3 5.4
2017-May-19 22:00N 31°24' E 121°33'612.0
2017-May-19 21:30N 31°21' E 121°39'611.1
2017-May-19 21:00N 31°19' E 121°45'510.7
2017-May-19 20:30N 31°16' E 121°51'510.8
2017-May-19 20:00N 31°15' E 121°57'611.3
2017-May-19 19:30N 31°14' E 122°04'5 9.8
2017-May-19 19:00N 31°12' E 122°09'510.2
2017-May-19 18:30N 31°09' E 122°14'5 9.6
2017-May-19 18:00N 31°06' E 122°18'712.7
2017-May-19 17:26N 31°07' E 122°27'4111.9
2017-May-19 13:58N 31°15' E 123°14'612.2
2017-May-19 13:30N 31°17' E 123°20'812.2
2017-May-19 12:49N 31°20' E 123°30'412.2
2017-May-19 12:30N 31°21' E 123°34'712.1
2017-May-19 11:57N 31°22' E 123°41'  
2017-May-16 00:45N 31°43' E 125°12'311.6
2017-May-16 00:30N 31°42' E 125°09'611.6
2017-May-16 00:00N 31°40' E 125°03'911.7
2017-May-15 23:13N 31°38' E 124°52'211.7
2017-May-15 23:00N 31°37' E 124°49'611.7
2017-May-15 22:30N 31°36' E 124°43'611.8
2017-May-15 22:00N 31°35' E 124°36'611.7
2017-May-15 21:30N 31°33' E 124°29'611.8
2017-May-15 21:00N 31°32' E 124°23'612.0
2017-May-15 20:30N 31°30' E 124°16'811.9
2017-May-15 19:51N 31°28' E 124°07'411.8
2017-May-15 19:30N 31°27' E 124°02'711.9
2017-May-15 18:56N 31°25' E 123°55'511.4
2017-May-15 18:30N 31°24' E 123°49'611.5
2017-May-15 18:00N 31°23' E 123°43'611.9
2017-May-15 17:30N 31°20' E 123°36'611.6
2017-May-15 17:00N 31°19' E 123°30'611.8
2017-May-15 16:30N 31°17' E 123°23'611.7
2017-May-15 16:00N 31°15' E 123°17'611.9
2017-May-15 15:31N 31°14' E 123°10'611.7
2017-May-15 15:00N 31°11' E 123°04'611.6
2017-May-15 14:30N 31°09' E 122°57'1111.3
2017-May-15 13:30N 31°05' E 122°45'611.6
2017-May-15 13:00N 31°05' E 122°38'611.6
2017-May-15 12:30N 31°05' E 122°31'5 9.9
2017-May-15 12:00N 31°06' E 122°26'713.3
2017-May-15 11:29N 31°06' E 122°18'714.4
2017-May-15 11:00N 31°10' E 122°11'714.7
2017-May-15 10:31N 31°14' E 122°04'815.3
2017-May-15 10:00N 31°16' E 121°55'815.1
2017-May-15 09:31N 31°18' E 121°46'713.0
2017-May-15 09:00N 31°21' E 121°40'611.8
2017-May-15 08:30N 31°24' E 121°34'3 6.1
2017-May-15 08:01N 31°25' E 121°30'0 0.0
2017-May-15 07:31N 31°25' E 121°30'0 0.0
2017-May-15 07:01N 31°25' E 121°30'0 0.0
2017-May-15 06:30N 31°25' E 121°30'0 0.0
2017-May-15 06:01N 31°25' E 121°30'0 0.0
2017-May-15 05:31N 31°25' E 121°30'0 0.0
2017-May-15 05:00N 31°25' E 121°30'0 0.0
2017-May-15 04:25N 31°25' E 121°30'0 0.0
2017-May-15 04:01N 31°25' E 121°30'0 0.0
2017-May-15 03:27N 31°25' E 121°30'0 0.0
2017-May-15 02:49N 31°25' E 121°30'  

Dump ship's entire track history